Energy Center, Louisiana
Current Conditions -  °F | °C
As of 5:53 PM on Friday 24 Oct 2014 (Local Time) from KLFT Reporting Station
Clear Clear  
Wind Chill: 23°   Ceiling: Unl
Heat Index: 23°   Visibility: 10mi
Dew Point:   Wind: 8mph
Humidity: 38%   Direction: 20°NNE
Pressure: 30.08"   Gusts: NA
Location:  30.2247°N, 92.0198°W
Report Text: KLFT 242253Z 02007KT 10SM CLR 23/08 A3008 RMK AO2 SLP185 T02280078
Loading
Personal Weather Stations






























Interactive Weather Map
Tropical Storm Tracking
New forecast layout! Learn more

10-Day Weather Forecast

Advertisements
Track Severe Weather on mobile